ENKB

Details ICAO ENKB (KSU)
Name KVERNBERGET
Region Norway
Timezone Europe/Oslo (UTC+2.0)
Plans Departing 47
Arriving 56
Stats Elevation 204 ft / 62 m (AMSL)
Location 63.111872° 7.824532°
Runways 1
Magnetic Variation 2.069° E
Sunrise 2018-05-24 02:01:23 UTC / 2018-05-24 04:01:23 Local
Sunset 2018-05-24 20:52:34 UTC / 2018-05-24 22:52:34 Local
Advertisement - Login to hide

Runways

ID Width Length Bearing (true) Bearing (mag) Surface Threshold Offset Overrun Length
07 148 ft / 45 m 6,192 ft / 1,887 m 71.39° 69.32° Asphalt 197 ft / 60 m 0 ft / 0 m
25 148 ft / 45 m 6,192 ft / 1,887 m 251.42° 249.35° Asphalt 263 ft / 80 m 0 ft / 0 m

Approach Navaids

Runway Type Ident Frequency Range Bearing (true) Bearing (mag) Slope Elevation
07 Localiser KB 110.10 MHz 18 nm / 33 km 71.60° 69.53° - 204 ft / 62 m (AMSL)
07 Glidescope KB 110.10 MHz 10 nm / 19 km 71.41° 69.34° 3.00° 204 ft / 62 m (AMSL)

Map

Weather


0- 5 10 15 20 25 30 35+ Temperature / ° C

Clouds and Precipitation
Forecast for 2018-05-24 12:00 UTC. Updated 5 hours ago

Ground ~20,000 ft ~40,000 ft Winds

METAR

ENKB 241550Z 29007KT 9999 BKN007 10/08 Q1028 RMK WIND 745FT 29007KT

TAF

Not found

Frequencies

Tower 121.20 MHz TWR
Tower 118.30 MHz TWR
Warning: Do not use this data for real-world aviation or navigation. No guarantee of current accuracy is given.